createdAt,value
2019-02-24T00:00:07.950Z,3.97
2019-02-24T00:02:36.813Z,4.20
2019-02-24T00:05:05.907Z,3.37
2019-02-24T00:07:34.709Z,3.80
2019-02-24T00:10:03.584Z,3.87
2019-02-24T00:12:32.405Z,3.70
2019-02-24T00:15:01.226Z,3.70
2019-02-24T00:17:30.100Z,3.60
2019-02-24T00:19:58.893Z,3.73
2019-02-24T00:22:27.694Z,3.80
2019-02-24T00:24:56.496Z,3.67
2019-02-24T00:27:25.317Z,3.53
2019-02-24T00:29:54.124Z,3.30
2019-02-24T00:32:22.945Z,3.90
2019-02-24T00:34:51.728Z,4.60
2019-02-24T00:37:20.532Z,3.33
2019-02-24T00:39:49.320Z,2.90
2019-02-24T00:42:18.155Z,3.70
2019-02-24T00:44:46.941Z,3.20
2019-02-24T00:47:15.757Z,2.80
2019-02-24T00:49:45.230Z,3.33
2019-02-24T00:52:14.037Z,4.00
2019-02-24T00:54:42.829Z,3.30
2019-02-24T00:57:12.417Z,3.23
2019-02-24T00:59:41.201Z,3.73
2019-02-24T01:02:10.089Z,3.20
2019-02-24T01:04:38.881Z,3.40
2019-02-24T01:07:07.694Z,3.57
2019-02-24T01:09:36.484Z,3.60
2019-02-24T01:12:05.365Z,3.43
2019-02-24T01:14:34.165Z,2.90
2019-02-24T01:17:03.420Z,3.27
2019-02-24T01:19:32.233Z,2.93
2019-02-24T01:22:01.024Z,3.47
2019-02-24T01:24:29.847Z,2.83
2019-02-24T01:26:58.637Z,2.90
2019-02-24T01:29:27.424Z,2.80
2019-02-24T01:31:56.236Z,2.80
2019-02-24T01:34:25.050Z,3.20
2019-02-24T01:36:53.869Z,2.87
2019-02-24T01:39:22.673Z,2.93
2019-02-24T01:41:51.558Z,3.10
2019-02-24T01:44:20.360Z,2.80
2019-02-24T01:46:49.175Z,2.73
2019-02-24T01:49:17.968Z,3.20
2019-02-24T01:51:46.772Z,2.87
2019-02-24T01:54:15.571Z,2.37
2019-02-24T01:56:44.387Z,2.60
2019-02-24T01:59:13.184Z,2.60
2019-02-24T02:01:41.985Z,2.93
2019-02-24T02:04:10.784Z,2.90
2019-02-24T02:06:39.605Z,2.90
2019-02-24T02:09:08.557Z,2.67
2019-02-24T02:11:37.446Z,2.20
2019-02-24T02:14:06.236Z,2.07
2019-02-24T02:16:35.129Z,2.90
2019-02-24T02:19:03.990Z,2.30
2019-02-24T02:21:32.882Z,2.50
2019-02-24T02:24:01.762Z,2.60
2019-02-24T02:26:30.721Z,2.80
2019-02-24T02:28:59.508Z,2.50
2019-02-24T02:31:28.390Z,2.60
2019-02-24T02:33:57.277Z,2.40
2019-02-24T02:36:26.090Z,2.30
2019-02-24T02:38:54.886Z,2.67
2019-02-24T02:41:23.701Z,2.50
2019-02-24T02:43:52.513Z,2.27
2019-02-24T02:46:21.305Z,2.60
2019-02-24T02:48:50.194Z,2.20
2019-02-24T02:51:19.069Z,2.53
2019-02-24T02:53:47.877Z,2.07
2019-02-24T02:56:16.758Z,2.63
2019-02-24T02:58:53.848Z,2.37
2019-02-24T03:01:16.173Z,2.70
2019-02-24T03:03:44.982Z,2.30
2019-02-24T03:06:44.839Z,1.73
2019-02-24T03:09:13.723Z,2.50
2019-02-24T03:11:42.661Z,2.17
2019-02-24T03:14:11.469Z,2.47
2019-02-24T03:16:40.278Z,2.13
2019-02-24T03:19:09.094Z,2.60
2019-02-24T03:21:37.963Z,2.37
2019-02-24T03:24:06.849Z,1.87
2019-02-24T03:26:35.724Z,2.40
2019-02-24T03:29:04.639Z,2.20
2019-02-24T03:31:33.471Z,1.97
2019-02-24T03:34:02.298Z,2.00
2019-02-24T03:36:31.166Z,2.10
2019-02-24T03:38:59.973Z,2.30
2019-02-24T03:41:28.921Z,2.20
2019-02-24T03:43:57.733Z,1.60
2019-02-24T03:46:26.534Z,1.60
2019-02-24T03:48:55.348Z,1.93
2019-02-24T03:51:24.215Z,1.80
2019-02-24T03:53:53.290Z,2.13
2019-02-24T03:56:22.233Z,1.93
2019-02-24T03:58:51.328Z,2.10
2019-02-24T04:01:20.221Z,1.80
2019-02-24T04:03:49.119Z,1.67
2019-02-24T04:06:18.002Z,2.07
2019-02-24T04:08:46.800Z,1.80
2019-02-24T04:11:15.598Z,1.73
2019-02-24T04:13:44.492Z,1.97
2019-02-24T04:16:13.282Z,1.87
2019-02-24T04:18:42.104Z,1.93
2019-02-24T04:21:10.979Z,1.97
2019-02-24T04:23:39.800Z,1.80
2019-02-24T04:26:08.590Z,2.20
2019-02-24T04:28:37.388Z,1.73
2019-02-24T04:31:06.204Z,1.37
2019-02-24T04:33:35.101Z,1.77
2019-02-24T04:36:03.989Z,1.97
2019-02-24T04:38:32.786Z,1.73
2019-02-24T04:41:01.599Z,2.07
2019-02-24T04:43:30.401Z,1.83
2019-02-24T04:45:59.285Z,1.50
2019-02-24T04:48:28.099Z,1.83
2019-02-24T04:50:56.909Z,2.10
2019-02-24T04:53:25.784Z,2.00
2019-02-24T04:55:54.584Z,1.70
2019-02-24T04:58:23.389Z,1.67
2019-02-24T05:00:52.268Z,1.60
2019-02-24T05:03:21.067Z,2.20
2019-02-24T05:05:49.876Z,1.50
2019-02-24T05:08:18.750Z,1.33
2019-02-24T05:10:47.714Z,2.40
2019-02-24T05:13:16.510Z,1.80
2019-02-24T05:15:45.401Z,1.90
2019-02-24T05:18:14.205Z,1.77
2019-02-24T05:20:43.022Z,1.83
2019-02-24T05:23:11.808Z,1.73
2019-02-24T05:25:40.631Z,1.50
2019-02-24T05:28:09.426Z,1.63
2019-02-24T05:30:38.233Z,1.50
2019-02-24T05:33:07.059Z,1.67
2019-02-24T05:35:35.941Z,1.50
2019-02-24T05:38:04.944Z,1.70
2019-02-24T05:40:33.760Z,1.30
2019-02-24T05:43:02.555Z,1.80
2019-02-24T05:45:31.357Z,1.40
2019-02-24T05:48:00.157Z,1.43
2019-02-24T05:50:28.977Z,1.70
2019-02-24T05:52:57.765Z,1.90
2019-02-24T05:55:26.585Z,1.80
2019-02-24T05:57:55.382Z,1.83
2019-02-24T06:00:24.202Z,1.53
2019-02-24T06:02:53.009Z,1.67
2019-02-24T06:05:21.814Z,1.47
2019-02-24T06:07:50.694Z,1.60
2019-02-24T06:10:19.498Z,1.40
2019-02-24T06:12:48.305Z,1.70
2019-02-24T06:15:17.097Z,1.90
2019-02-24T06:17:45.920Z,2.03
2019-02-24T06:20:14.793Z,1.57
2019-02-24T06:22:43.606Z,1.60
2019-02-24T06:25:12.567Z,1.90
2019-02-24T06:27:41.370Z,1.40
2019-02-24T06:30:10.334Z,1.50
2019-02-24T06:32:39.149Z,1.20
2019-02-24T06:35:08.182Z,1.73
2019-02-24T06:37:36.995Z,1.80
2019-02-24T06:40:06.068Z,1.17
2019-02-24T06:42:34.873Z,1.70
2019-02-24T06:45:03.883Z,1.50
2019-02-24T06:47:32.688Z,1.67
2019-02-24T06:50:01.571Z,1.40
2019-02-24T06:52:30.366Z,1.67
2019-02-24T06:54:59.175Z,1.30
2019-02-24T06:57:28.045Z,1.60
2019-02-24T06:59:56.926Z,1.90
2019-02-24T07:02:25.721Z,2.10
2019-02-24T07:04:54.550Z,2.23
2019-02-24T07:07:23.416Z,1.70
2019-02-24T07:09:52.317Z,1.67
2019-02-24T07:12:21.187Z,2.40
2019-02-24T07:14:50.073Z,1.77
2019-02-24T07:17:18.852Z,1.63
2019-02-24T07:19:47.660Z,1.33
2019-02-24T07:22:16.463Z,1.93
2019-02-24T07:24:45.269Z,2.10
2019-02-24T07:27:14.060Z,1.73
2019-02-24T07:29:42.869Z,1.80
2019-02-24T07:32:11.673Z,1.60
2019-02-24T07:34:40.510Z,1.90
2019-02-24T07:37:12.963Z,1.53
2019-02-24T07:39:39.839Z,2.10
2019-02-24T07:42:08.638Z,1.90
2019-02-24T07:44:37.457Z,1.43
2019-02-24T07:47:06.262Z,1.80
2019-02-24T07:49:35.082Z,1.47
2019-02-24T07:52:03.876Z,2.17
2019-02-24T07:54:32.697Z,1.83
2019-02-24T07:57:01.505Z,1.90
2019-02-24T07:59:30.386Z,1.80
2019-02-24T08:01:59.265Z,1.63
2019-02-24T08:04:28.085Z,2.10
2019-02-24T08:06:56.901Z,2.20
2019-02-24T08:09:25.706Z,2.17
2019-02-24T08:11:54.572Z,1.80
2019-02-24T08:14:23.390Z,1.77
2019-02-24T08:16:52.262Z,2.00
2019-02-24T08:19:21.073Z,1.90
2019-02-24T08:21:49.875Z,1.70
2019-02-24T08:24:18.767Z,1.70
2019-02-24T08:26:47.573Z,1.60
2019-02-24T08:29:16.398Z,2.10
2019-02-24T08:31:45.215Z,2.10
2019-02-24T08:34:14.019Z,2.03
2019-02-24T08:36:42.978Z,1.57
2019-02-24T08:39:11.861Z,1.80
2019-02-24T08:41:40.738Z,1.40
2019-02-24T08:44:09.562Z,2.03
2019-02-24T08:46:38.365Z,2.20
2019-02-24T08:49:07.178Z,1.50
2019-02-24T08:51:36.059Z,1.77
2019-02-24T08:54:04.922Z,2.10
2019-02-24T08:56:33.735Z,1.70
2019-02-24T08:59:02.550Z,1.93
2019-02-24T09:01:31.345Z,1.70
2019-02-24T09:04:00.169Z,2.10
2019-02-24T09:06:28.978Z,1.97
2019-02-24T09:08:57.777Z,1.50
2019-02-24T09:11:26.590Z,1.83
2019-02-24T09:13:55.393Z,1.80
2019-02-24T09:16:24.185Z,1.70
2019-02-24T09:18:53.065Z,1.73
2019-02-24T09:21:21.870Z,1.83
2019-02-24T09:23:50.997Z,1.60
2019-02-24T09:26:19.861Z,1.60
2019-02-24T09:28:50.821Z,1.67
2019-02-24T09:31:19.316Z,1.70
2019-02-24T09:33:48.209Z,1.80
2019-02-24T09:36:17.085Z,1.80
2019-02-24T09:38:45.948Z,1.90
2019-02-24T09:41:14.844Z,1.97
2019-02-24T09:43:43.656Z,1.80
2019-02-24T09:46:12.469Z,2.00
2019-02-24T09:48:41.354Z,2.00
2019-02-24T09:51:10.321Z,2.20
2019-02-24T09:53:39.201Z,1.97
2019-02-24T09:56:08.087Z,1.73
2019-02-24T09:58:36.890Z,1.90
2019-02-24T10:01:10.523Z,2.07
2019-02-24T10:03:36.371Z,1.77
2019-02-24T10:06:05.178Z,1.80
2019-02-24T10:08:33.987Z,1.60
2019-02-24T10:11:02.881Z,1.90
2019-02-24T10:13:31.686Z,1.80
2019-02-24T10:16:00.874Z,1.77
2019-02-24T10:18:29.759Z,1.90
2019-02-24T10:20:58.621Z,2.00
2019-02-24T10:23:27.464Z,1.73
2019-02-24T10:25:56.251Z,2.07
2019-02-24T10:28:25.197Z,1.53
2019-02-24T10:30:54.174Z,1.97
2019-02-24T10:33:22.973Z,2.03
2019-02-24T10:35:51.793Z,2.70
2019-02-24T10:38:21.474Z,1.60
2019-02-24T10:40:50.357Z,2.20
2019-02-24T10:43:19.245Z,1.77
2019-02-24T10:45:48.125Z,1.93
2019-02-24T10:48:16.927Z,1.97
2019-02-24T10:50:45.809Z,1.60
2019-02-24T10:53:14.631Z,2.10
2019-02-24T10:55:43.501Z,1.60
2019-02-24T10:58:12.461Z,1.80
2019-02-24T11:00:41.341Z,1.83
2019-02-24T11:03:10.229Z,1.70
2019-02-24T11:05:39.188Z,1.90
2019-02-24T11:08:07.982Z,1.67
2019-02-24T11:10:36.785Z,1.83
2019-02-24T11:13:05.737Z,1.50
2019-02-24T11:15:34.559Z,1.50
2019-02-24T11:18:03.446Z,1.60
2019-02-24T11:20:32.509Z,1.80
2019-02-24T11:23:01.386Z,1.90
2019-02-24T11:25:30.273Z,1.70
2019-02-24T11:27:59.165Z,1.90
2019-02-24T11:30:27.993Z,1.80
2019-02-24T11:32:56.975Z,2.30
2019-02-24T11:35:25.870Z,1.80
2019-02-24T11:37:54.764Z,1.57
2019-02-24T11:40:23.753Z,1.90
2019-02-24T11:42:52.560Z,1.50
2019-02-24T11:45:21.486Z,1.70
2019-02-24T11:47:50.305Z,1.80
2019-02-24T11:50:19.193Z,1.70
2019-02-24T11:52:48.002Z,1.87
2019-02-24T11:55:16.989Z,2.07
2019-02-24T11:57:45.779Z,1.50
2019-02-24T12:00:15.424Z,2.00
2019-02-24T12:02:44.376Z,1.70
2019-02-24T12:05:13.473Z,1.87
2019-02-24T12:07:42.281Z,1.60
2019-02-24T12:10:11.238Z,1.60
2019-02-24T12:12:40.188Z,1.90
2019-02-24T12:15:09.598Z,1.80
2019-02-24T12:17:38.605Z,1.67
2019-02-24T12:20:09.373Z,1.43
2019-02-24T12:22:38.345Z,1.80
2019-02-24T12:25:07.818Z,1.77
2019-02-24T12:27:36.798Z,1.67
2019-02-24T12:30:06.902Z,2.10
2019-02-24T12:32:35.788Z,1.50
2019-02-24T12:35:05.048Z,1.43
2019-02-24T12:37:33.863Z,1.87
2019-02-24T12:40:02.771Z,1.80
2019-02-24T12:42:31.649Z,1.67
2019-02-24T12:45:00.454Z,1.53
2019-02-24T12:47:29.269Z,1.40
2019-02-24T12:50:03.143Z,1.67
2019-02-24T12:52:28.767Z,1.60
2019-02-24T12:54:57.586Z,1.50
2019-02-24T12:57:26.452Z,1.40
2019-02-24T12:59:55.345Z,1.80
2019-02-24T13:02:24.265Z,1.80
2019-02-24T13:04:53.061Z,1.73
2019-02-24T13:07:21.958Z,1.50
2019-02-24T13:09:50.774Z,1.40
2019-02-24T13:12:19.689Z,1.87
2019-02-24T13:14:48.501Z,1.70
2019-02-24T13:17:17.872Z,1.27
2019-02-24T13:19:47.266Z,1.47
2019-02-24T13:22:16.919Z,1.70
2019-02-24T13:24:49.045Z,2.17
2019-02-24T13:27:18.705Z,1.97
2019-02-24T13:29:48.462Z,1.80
2019-02-24T13:32:18.126Z,1.57
2019-02-24T13:34:47.899Z,1.40
2019-02-24T13:37:17.634Z,1.40
2019-02-24T13:39:47.401Z,1.87
2019-02-24T13:42:17.241Z,1.73
2019-02-24T13:44:46.865Z,1.83
2019-02-24T13:47:16.644Z,1.77
2019-02-24T13:49:45.565Z,2.03
2019-02-24T13:52:14.455Z,1.67
2019-02-24T13:54:43.470Z,1.70
2019-02-24T13:57:12.341Z,1.80
2019-02-24T13:59:41.294Z,1.80
2019-02-24T14:02:10.105Z,2.80
2019-02-24T14:04:39.073Z,3.50
2019-02-24T14:07:07.914Z,4.77
2019-02-24T14:09:36.717Z,7.63
2019-02-24T14:12:05.625Z,11.10
2019-02-24T14:14:34.445Z,14.90
2019-02-24T14:17:03.343Z,15.50
2019-02-24T14:19:32.182Z,16.13
2019-02-24T14:22:01.122Z,17.50
2019-02-24T14:24:30.022Z,16.97
2019-02-24T14:26:58.825Z,17.80
2019-02-24T14:29:27.708Z,16.77
2019-02-24T14:31:56.504Z,19.00
2019-02-24T14:34:25.330Z,18.10
2019-02-24T14:36:54.222Z,21.30
2019-02-24T14:39:23.115Z,18.80
2019-02-24T14:41:52.006Z,19.60
2019-02-24T14:44:20.886Z,20.83
2019-02-24T14:46:49.765Z,20.23
2019-02-24T14:49:18.569Z,19.70
2019-02-24T14:51:47.476Z,18.57
2019-02-24T14:54:16.276Z,19.80
2019-02-24T14:56:45.105Z,18.57
2019-02-24T14:59:13.911Z,19.70
2019-02-24T15:01:42.736Z,19.90
2019-02-24T15:04:11.626Z,19.17
2019-02-24T15:06:40.445Z,18.23
2019-02-24T15:09:09.399Z,17.97
2019-02-24T15:11:38.198Z,17.60
2019-02-24T15:14:07.089Z,17.50
2019-02-24T15:16:35.898Z,17.87
2019-02-24T15:19:04.869Z,17.50
2019-02-24T15:21:33.698Z,16.73
2019-02-24T15:24:02.513Z,17.07
2019-02-24T15:26:31.335Z,16.40
2019-02-24T15:29:00.273Z,17.30
2019-02-24T15:31:29.160Z,15.97
2019-02-24T15:33:58.050Z,16.70
2019-02-24T15:36:26.937Z,17.47
2019-02-24T15:38:55.746Z,16.87
2019-02-24T15:41:29.723Z,18.10
2019-02-24T15:43:55.123Z,16.33
2019-02-24T15:46:24.022Z,14.93
2019-02-24T15:48:52.912Z,13.67
2019-02-24T15:51:21.885Z,15.27
2019-02-24T15:53:50.665Z,14.67
2019-02-24T15:56:19.485Z,16.57
2019-02-24T15:58:48.369Z,14.80
2019-02-24T16:01:17.178Z,14.17
2019-02-24T16:03:45.993Z,13.97
2019-02-24T16:06:14.801Z,14.93
2019-02-24T16:08:43.617Z,16.13
2019-02-24T16:11:12.497Z,15.20
2019-02-24T16:13:41.327Z,13.77
2019-02-24T16:16:10.296Z,15.23
2019-02-24T16:18:39.274Z,14.80
2019-02-24T16:21:08.221Z,13.90
2019-02-24T16:23:37.111Z,12.80
2019-02-24T16:26:05.933Z,12.83
2019-02-24T16:28:34.745Z,12.57
2019-02-24T16:31:03.640Z,13.23
2019-02-24T16:33:32.461Z,12.53
2019-02-24T16:36:01.414Z,14.70
2019-02-24T16:38:30.219Z,11.40
2019-02-24T16:40:59.109Z,13.50
2019-02-24T16:43:27.992Z,12.80
2019-02-24T16:45:56.894Z,11.63
2019-02-24T16:48:25.697Z,13.43
2019-02-24T16:50:54.522Z,12.30
2019-02-24T16:53:23.326Z,11.97
2019-02-24T16:55:52.154Z,11.80
2019-02-24T16:58:20.958Z,13.43
2019-02-24T17:00:49.836Z,13.23
2019-02-24T17:03:20.111Z,12.23
2019-02-24T17:05:49.204Z,11.00
2019-02-24T17:08:18.025Z,11.33
2019-02-24T17:10:46.985Z,11.13
2019-02-24T17:13:15.824Z,11.00
2019-02-24T17:15:44.651Z,12.10
2019-02-24T17:18:13.449Z,10.13
2019-02-24T17:20:42.268Z,10.20
2019-02-24T17:23:11.092Z,11.50
2019-02-24T17:25:39.889Z,10.07
2019-02-24T17:28:08.818Z,10.83
2019-02-24T17:30:37.811Z,11.13
2019-02-24T17:33:06.685Z,10.47
2019-02-24T17:35:35.572Z,9.17
2019-02-24T17:38:04.874Z,8.93
2019-02-24T17:40:33.763Z,10.40
2019-02-24T17:43:02.571Z,10.17
2019-02-24T17:45:31.388Z,11.03
2019-02-24T17:48:00.205Z,11.07
2019-02-24T17:50:29.085Z,8.97
2019-02-24T17:52:57.893Z,9.83
2019-02-24T17:55:26.796Z,10.23
2019-02-24T17:57:55.669Z,9.90
2019-02-24T18:00:28.225Z,9.37
2019-02-24T18:02:57.155Z,10.77
2019-02-24T18:05:26.041Z,8.80
2019-02-24T18:07:54.912Z,9.27
2019-02-24T18:10:23.917Z,9.40
2019-02-24T18:12:52.807Z,9.23
2019-02-24T18:15:21.613Z,9.73
2019-02-24T18:17:50.497Z,8.27
2019-02-24T18:20:19.386Z,7.87
2019-02-24T18:22:48.268Z,8.53
2019-02-24T18:25:17.221Z,7.50
2019-02-24T18:27:46.147Z,8.30
2019-02-24T18:30:19.804Z,9.40
2019-02-24T18:32:48.699Z,9.50
2019-02-24T18:35:17.573Z,8.50
2019-02-24T18:37:46.390Z,7.70
2019-02-24T18:40:15.668Z,7.90
2019-02-24T18:42:44.746Z,8.33
2019-02-24T18:45:13.784Z,8.60
2019-02-24T18:47:42.777Z,7.40
2019-02-24T18:50:11.853Z,7.60
2019-02-24T18:52:40.671Z,7.80
2019-02-24T18:55:09.728Z,7.43
2019-02-24T18:57:38.675Z,8.40
2019-02-24T19:00:09.161Z,7.50
2019-02-24T19:02:38.062Z,6.53
2019-02-24T19:05:07.376Z,7.53
2019-02-24T19:07:36.191Z,8.00
2019-02-24T19:10:05.755Z,7.83
2019-02-24T19:12:34.638Z,8.00
2019-02-24T19:15:03.673Z,6.83
2019-02-24T19:17:32.677Z,6.20
2019-02-24T19:20:02.976Z,6.37
2019-02-24T19:22:32.006Z,7.97
2019-02-24T19:25:00.829Z,6.70
2019-02-24T19:27:29.625Z,6.30
2019-02-24T19:29:58.446Z,5.70
2019-02-24T19:32:27.249Z,7.40
2019-02-24T19:34:56.117Z,6.00
2019-02-24T19:37:24.933Z,6.77
2019-02-24T19:39:53.736Z,6.27
2019-02-24T19:42:22.554Z,7.13
2019-02-24T19:44:51.365Z,6.20
2019-02-24T19:47:20.173Z,6.50
2019-02-24T19:49:48.969Z,6.20
2019-02-24T19:52:17.788Z,6.67
2019-02-24T19:54:46.661Z,6.97
2019-02-24T19:57:15.485Z,6.33
2019-02-24T19:59:44.281Z,6.43
2019-02-24T20:02:13.256Z,6.60
2019-02-24T20:04:42.141Z,6.13
2019-02-24T20:07:10.954Z,6.10
2019-02-24T20:09:39.941Z,5.93
2019-02-24T20:12:08.837Z,6.47
2019-02-24T20:14:37.704Z,5.83
2019-02-24T20:17:06.587Z,6.17
2019-02-24T20:19:35.409Z,6.20
2019-02-24T20:22:04.546Z,5.67
2019-02-24T20:24:33.352Z,5.90
2019-02-24T20:27:02.235Z,5.77
2019-02-24T20:29:31.037Z,5.57
2019-02-24T20:31:59.860Z,5.93
2019-02-24T20:34:28.684Z,6.50
2019-02-24T20:36:57.481Z,5.73
2019-02-24T20:39:26.296Z,5.90
2019-02-24T20:41:55.122Z,5.40
2019-02-24T20:44:23.988Z,5.40
2019-02-24T20:46:52.794Z,6.57
2019-02-24T20:49:21.673Z,5.90
2019-02-24T20:51:50.565Z,5.20
2019-02-24T20:54:19.437Z,5.67
2019-02-24T20:56:48.349Z,4.90
2019-02-24T20:59:17.295Z,5.90
2019-02-24T21:01:46.111Z,5.00
2019-02-24T21:04:14.921Z,4.43
2019-02-24T21:06:43.739Z,5.43
2019-02-24T21:09:12.644Z,5.77
2019-02-24T21:11:41.481Z,5.20
2019-02-24T21:14:10.298Z,5.17
2019-02-24T21:16:39.123Z,5.83
2019-02-24T21:19:07.927Z,5.50
2019-02-24T21:21:36.746Z,5.97
2019-02-24T21:24:06.985Z,5.00
2019-02-24T21:26:36.447Z,5.40
2019-02-24T21:29:06.236Z,4.40
2019-02-24T21:31:35.849Z,4.77
2019-02-24T21:34:05.558Z,5.53
2019-02-24T21:36:36.189Z,4.43
2019-02-24T21:39:07.142Z,5.80
2019-02-24T21:41:36.582Z,5.20
2019-02-24T21:44:05.562Z,5.17
2019-02-24T21:46:34.357Z,4.93
2019-02-24T21:49:03.625Z,4.30
2019-02-24T21:51:32.498Z,4.90
2019-02-24T21:54:01.301Z,5.20
2019-02-24T21:56:30.109Z,4.43
2019-02-24T21:58:58.933Z,4.63
2019-02-24T22:01:27.738Z,4.90
2019-02-24T22:03:56.639Z,4.53
2019-02-24T22:06:25.448Z,4.57
2019-02-24T22:08:54.257Z,5.03
2019-02-24T22:11:23.133Z,4.10
2019-02-24T22:13:51.930Z,5.27
2019-02-24T22:16:20.737Z,4.10
2019-02-24T22:18:49.624Z,4.70
2019-02-24T22:21:18.504Z,4.50
2019-02-24T22:23:47.873Z,4.10
2019-02-24T22:26:16.745Z,3.50
2019-02-24T22:28:45.693Z,4.40
2019-02-24T22:31:14.489Z,4.30
2019-02-24T22:33:43.321Z,4.30
2019-02-24T22:36:12.184Z,4.03
2019-02-24T22:38:41.069Z,4.23
2019-02-24T22:41:09.881Z,5.77
2019-02-24T22:43:38.693Z,4.00
2019-02-24T22:46:07.511Z,5.63
2019-02-24T22:48:36.325Z,4.23
2019-02-24T22:51:05.197Z,4.30
2019-02-24T22:53:34.006Z,4.40
2019-02-24T23:48:37.042Z,3.83
